Time;durP1;ratioP1;P1;durP2;ratioP2;P2;SDS_P1;SDS_P2;PMS_P1;PMS_P2;Temp;Humidity;BMP_temperature;BMP_pressure;BME280_temperature;BME280_humidity;BME280_pressure;Samples;Min_cycle;Max_cycle;Signal;HPM_P1;HPM_P2
2021/04/24 00:00:28;;;;;;;12.98;8.15;;;;;;;3.84;63.91;97336.86;1693592;83;21519;-83
2021/04/24 00:02:57;;;;;;;19.60;9.67;;;;;;;3.78;64.21;97325.91;1700413;83;21108;-83
2021/04/24 00:05:32;;;;;;;18.80;9.28;;;;;;;3.74;64.07;97323.44;1696067;83;21144;-83
2021/04/24 00:08:05;;;;;;;14.68;8.20;;;;;;;3.78;64.22;97327.73;1704395;83;21480;-83
2021/04/24 00:10:35;;;;;;;16.30;8.55;;;;;;;3.81;64.17;97324.19;1660928;86;21135;-83
2021/04/24 00:13:05;;;;;;;13.93;8.63;;;;;;;3.85;64.34;97320.62;1687604;84;21158;-83
2021/04/24 00:15:33;;;;;;;17.73;9.20;;;;;;;3.88;64.30;97320.17;1685188;83;21144;-83
2021/04/24 00:18:01;;;;;;;13.88;8.58;;;;;;;3.88;64.23;97324.11;1708816;83;21121;-83
2021/04/24 00:20:28;;;;;;;17.92;8.80;;;;;;;3.91;64.13;97323.66;1678994;84;21199;-83
2021/04/24 00:22:55;;;;;;;14.50;8.28;;;;;;;3.94;64.31;97332.92;1728744;81;21169;-83
2021/04/24 00:25:22;;;;;;;14.50;7.87;;;;;;;3.98;64.04;97318.37;1674309;84;21133;-83
2021/04/24 00:27:50;;;;;;;17.00;8.03;;;;;;;4.02;64.25;97322.15;1689403;84;21175;-84
2021/04/24 00:30:19;;;;;;;16.50;8.15;;;;;;;4.03;63.99;97325.06;1682667;84;21151;-83
2021/04/24 00:32:48;;;;;;;17.48;8.33;;;;;;;4.03;64.04;97319.81;1671392;84;21495;-83
2021/04/24 00:35:18;;;;;;;16.25;8.73;;;;;;;4.04;63.95;97319.59;1672311;84;21174;-83
2021/04/24 00:37:47;;;;;;;14.30;8.05;;;;;;;4.05;64.01;97322.50;1688685;84;21152;-84
2021/04/24 00:40:16;;;;;;;13.68;7.95;;;;;;;4.04;63.79;97322.22;1689951;84;21140;-83
2021/04/24 00:42:45;;;;;;;13.43;7.65;;;;;;;4.04;63.91;97323.53;1751107;81;21149;-83
2021/04/24 00:45:15;;;;;;;13.93;7.80;;;;;;;4.03;63.99;97317.98;1737616;81;21151;-83
2021/04/24 00:47:44;;;;;;;14.30;5.65;;;;;;;4.05;63.92;97315.14;1659199;85;21207;-83
2021/04/24 00:50:16;;;;;;;12.75;7.40;;;;;;;4.03;63.77;97320.61;1655479;85;21165;-83
2021/04/24 00:52:43;;;;;;;16.45;8.70;;;;;;;4.03;63.79;97313.25;1664944;84;21199;-83
2021/04/24 00:55:12;;;;;;;14.75;8.00;;;;;;;4.01;63.91;97317.41;1656742;85;21354;-83
2021/04/24 00:57:41;;;;;;;13.90;7.72;;;;;;;4.02;63.93;97320.84;1664492;84;21177;-83
2021/04/24 01:00:12;;;;;;;11.78;6.85;;;;;;;4.01;63.80;97314.78;1673482;84;21499;-83
2021/04/24 01:02:41;;;;;;;15.70;7.87;;;;;;;4.04;63.84;97320.10;1679588;84;21180;-83
2021/04/24 01:05:15;;;;;;;15.98;8.63;;;;;;;4.03;63.80;97314.05;1678770;85;21565;-83
2021/04/24 01:07:43;;;;;;;15.55;8.28;;;;;;;4.05;63.75;97312.01;1704425;83;21169;-83
2021/04/24 01:10:13;;;;;;;15.85;8.28;;;;;;;4.06;63.64;97312.30;1726584;82;21137;-83
2021/04/24 01:12:43;;;;;;;15.25;8.25;;;;;;;4.02;63.82;97312.45;1727900;82;21541;-83
2021/04/24 01:15:13;;;;;;;13.78;7.72;;;;;;;3.97;63.86;97309.70;1710704;83;21136;-83
2021/04/24 01:17:42;;;;;;;;;;;;;;;3.97;63.92;97308.89;1710087;83;21144;-83
2021/04/24 01:20:12;;;;;;;18.05;7.83;;;;;;;3.96;63.96;97315.16;1699826;83;20181;-83
2021/04/24 01:22:42;;;;;;;9.70;6.10;;;;;;;3.94;63.98;97317.17;1711321;83;21538;-83
2021/04/24 01:25:16;;;;;;;;;;;;;;;3.94;63.95;97306.69;1693337;84;21177;-83
2021/04/24 01:27:47;;;;;;;16.37;7.70;;;;;;;3.95;63.90;97299.14;1682332;83;20398;-83
2021/04/24 01:30:19;;;;;;;14.03;7.97;;;;;;;3.93;63.98;97304.57;1683048;85;21222;-83
2021/04/24 01:32:47;;;;;;;16.70;8.00;;;;;;;3.93;63.91;97302.46;1676134;85;21180;-83
2021/04/24 01:35:19;;;;;;;17.05;7.70;;;;;;;3.91;63.94;97302.68;1727220;82;21114;-83
2021/04/24 01:37:47;;;;;;;14.28;7.37;;;;;;;3.91;64.07;97297.95;1730329;82;21165;-83
2021/04/24 01:40:17;;;;;;;15.78;7.67;;;;;;;3.91;64.02;97298.75;1728855;82;21549;-83
2021/04/24 01:42:45;;;;;;;12.80;7.28;;;;;;;3.92;64.18;97292.99;1731412;82;21491;-83
2021/04/24 01:45:16;;;;;;;15.15;7.12;;;;;;;3.91;64.27;97296.13;1721179;83;21115;-83
2021/04/24 01:47:46;;;;;;;16.12;7.55;;;;;;;3.88;64.26;97291.33;1730524;82;21143;-83
2021/04/24 01:50:18;;;;;;;12.25;7.42;;;;;;;3.84;64.32;97287.03;1717787;82;21549;-83
2021/04/24 01:52:49;;;;;;;16.20;8.40;;;;;;;3.85;64.38;97287.83;1722624;82;21119;-83
2021/04/24 01:55:21;;;;;;;15.58;8.05;;;;;;;3.83;64.29;97282.81;1718767;83;21273;-83
2021/04/24 01:57:51;;;;;;;13.10;7.83;;;;;;;3.84;64.36;97282.30;1730015;82;21528;-83
2021/04/24 02:00:24;;;;;;;19.05;8.18;;;;;;;3.84;64.42;97276.54;1720737;80;21203;-83
2021/04/24 02:02:53;;;;;;;14.73;7.20;;;;;;;3.86;64.41;97280.25;1729381;82;21538;-83
2021/04/24 02:05:22;;;;;;;14.98;7.40;;;;;;;3.84;64.43;97279.16;1724920;81;21136;-83
2021/04/24 02:07:59;;;;;;;14.95;7.35;;;;;;;3.84;64.46;97284.92;1665444;86;21535;-83
2021/04/24 02:10:29;;;;;;;15.00;7.12;;;;;;;3.85;64.49;97284.70;1676909;85;21200;-83
2021/04/24 02:13:03;;;;;;;15.75;7.25;;;;;;;3.84;64.54;97272.61;1656359;85;21219;-83
2021/04/24 02:15:30;;;;;;;12.85;6.60;;;;;;;3.85;64.68;97274.72;1666927;86;21204;-83
2021/04/24 02:17:57;;;;;;;11.73;7.05;;;;;;;3.84;64.57;97271.30;1667117;85;21140;-83
2021/04/24 02:20:24;;;;;;;16.07;8.43;;;;;;;3.86;64.69;97274.50;1667007;85;21286;-83
2021/04/24 02:22:51;;;;;;;11.53;6.70;;;;;;;3.84;64.54;97277.05;1674761;86;21592;-83
2021/04/24 02:25:21;;;;;;;16.75;7.50;;;;;;;3.82;64.62;97272.03;1676339;85;21133;-83
2021/04/24 02:27:49;;;;;;;9.48;5.20;;;;;;;3.84;64.64;97273.12;1669805;84;21209;-83
2021/04/24 02:30:20;;;;;;;12.70;6.30;;;;;;;3.87;64.62;97266.91;1673849;84;21294;-83
2021/04/24 02:32:48;;;;;;;12.18;7.17;;;;;;;3.90;64.65;97264.87;1668441;86;21302;-83
2021/04/24 02:35:20;;;;;;;14.13;7.75;;;;;;;3.91;64.61;97262.02;1668895;85;21179;-83
2021/04/24 02:37:48;;;;;;;15.40;7.00;;;;;;;3.90;64.56;97256.48;1649163;86;21165;-83
2021/04/24 02:40:20;;;;;;;13.10;6.30;;;;;;;3.92;64.65;97261.52;1671479;84;21156;-83
2021/04/24 02:42:48;;;;;;;13.48;6.80;;;;;;;3.94;64.54;97257.67;1676416;84;21345;-83
2021/04/24 02:45:17;;;;;;;12.25;6.62;;;;;;;3.95;64.64;97255.85;1682847;84;21208;-83
2021/04/24 02:47:46;;;;;;;14.33;7.15;;;;;;;3.94;64.64;97245.04;1673124;84;21298;-83
2021/04/24 02:50:17;;;;;;;12.60;6.15;;;;;;;3.96;64.56;97253.01;1671067;84;21195;-83
2021/04/24 02:52:45;;;;;;;14.58;6.83;;;;;;;3.96;64.64;97250.38;1661688;86;21313;-83
2021/04/24 02:55:16;;;;;;;11.05;5.90;;;;;;;3.98;64.64;97260.66;1678728;84;21306;-83
2021/04/24 02:57:45;;;;;;;11.35;5.40;;;;;;;4.00;64.55;97259.41;1685087;84;21123;-83
2021/04/24 03:00:17;;;;;;;12.50;6.47;;;;;;;4.03;64.68;97249.78;1739603;81;21189;-83
2021/04/24 03:02:44;;;;;;;10.78;6.00;;;;;;;4.02;64.61;97246.87;1673442;84;21144;-83
2021/04/24 03:05:16;;;;;;;13.35;6.58;;;;;;;4.02;64.64;97248.18;1694931;84;21231;-83
2021/04/24 03:07:45;;;;;;;15.13;6.37;;;;;;;4.04;64.82;97246.13;1680537;84;21459;-83
2021/04/24 03:10:14;;;;;;;9.85;6.20;;;;;;;4.02;64.67;97244.24;1672073;85;21207;-83
2021/04/24 03:12:41;;;;;;;14.45;6.72;;;;;;;4.04;64.64;97246.64;1675161;84;21128;-83
2021/04/24 03:15:10;;;;;;;12.68;6.50;;;;;;;4.04;64.58;97247.44;1745998;81;21164;-83
2021/04/24 03:17:37;;;;;;;8.33;3.77;;;;;;;4.06;64.41;97242.77;1653816;84;21530;-83
2021/04/24 03:20:09;;;;;;;11.88;5.87;;;;;;;4.07;64.40;97232.56;1663595;84;21232;-83
2021/04/24 03:22:37;;;;;;;11.12;6.03;;;;;;;4.07;64.39;97231.77;1676236;86;21671;-83
2021/04/24 03:25:07;;;;;;;11.83;6.15;;;;;;;4.08;64.16;97221.56;1679074;85;21156;-83
2021/04/24 03:27:35;;;;;;;13.68;7.20;;;;;;;4.10;64.29;97231.34;1679308;84;21156;-83
2021/04/24 03:30:05;;;;;;;8.78;4.55;;;;;;;4.10;64.24;97228.21;1664928;84;21126;-83
2021/04/24 03:32:32;;;;;;;13.30;6.05;;;;;;;4.10;64.22;97224.28;1676784;85;21187;-83
2021/04/24 03:35:00;;;;;;;13.95;6.28;;;;;;;4.15;63.88;97217.04;1674152;84;21148;-83
2021/04/24 03:37:29;;;;;;;7.72;4.60;;;;;;;4.15;64.20;97219.66;1694376;84;21167;-83
2021/04/24 03:39:56;;;;;;;12.20;6.00;;;;;;;4.11;64.37;97225.88;1673116;85;21155;-83
2021/04/24 03:42:23;;;;;;;13.40;5.95;;;;;;;4.09;64.29;97220.05;1681395;84;21137;-83
2021/04/24 03:44:50;;;;;;;11.33;6.25;;;;;;;4.09;64.78;97229.23;1671109;85;21198;-83
2021/04/24 03:47:17;;;;;;;15.90;7.45;;;;;;;4.09;64.57;97230.55;1674638;84;21187;-83
2021/04/24 03:49:44;;;;;;;14.25;6.37;;;;;;;4.10;64.53;97238.70;1671894;84;21157;-83
2021/04/24 03:52:11;;;;;;;11.60;6.62;;;;;;;4.14;64.50;97239.05;1680457;85;21548;-83
2021/04/24 03:54:38;;;;;;;12.55;5.90;;;;;;;4.18;64.39;97247.56;1668020;86;21495;-83
2021/04/24 03:57:05;;;;;;;13.00;5.80;;;;;;;4.21;64.46;97250.77;1670690;86;21156;-83
2021/04/24 03:59:34;;;;;;;11.22;6.25;;;;;;;4.20;64.33;97255.22;1671274;85;21249;-83
2021/04/24 04:02:01;;;;;;;12.43;5.37;;;;;;;4.23;64.26;97249.55;1704460;83;21163;-83
2021/04/24 04:04:28;;;;;;;12.70;6.05;;;;;;;4.25;64.00;97249.33;1686534;84;21194;-83
2021/04/24 04:06:55;;;;;;;13.22;5.65;;;;;;;4.29;63.99;97259.66;1741919;81;21541;-83
2021/04/24 04:09:22;;;;;;;13.15;7.05;;;;;;;4.30;63.80;97258.63;1731513;81;21474;-83
2021/04/24 04:11:50;;;;;;;13.55;6.00;;;;;;;4.31;64.03;97262.86;1733740;83;21179;-83
2021/04/24 04:14:17;;;;;;;10.38;5.45;;;;;;;4.31;64.36;97258.92;1734741;81;21284;-83
2021/04/24 04:16:44;;;;;;;14.63;6.90;;;;;;;4.32;64.16;97276.27;1760032;81;21278;-83
2021/04/24 04:19:11;;;;;;;11.55;6.30;;;;;;;4.34;63.84;97276.84;1733837;81;21194;-83
2021/04/24 04:21:38;;;;;;;8.95;5.20;;;;;;;4.36;63.96;97278.25;1738901;81;21154;-83
2021/04/24 04:24:06;;;;;;;11.38;6.28;;;;;;;4.38;63.89;97275.40;1741212;81;21214;-83
2021/04/24 04:26:33;;;;;;;7.75;4.30;;;;;;;4.38;63.99;97277.52;1747382;81;21178;-83
2021/04/24 04:29:00;;;;;;;9.25;4.67;;;;;;;4.42;64.10;97285.73;1743472;80;21349;-83
2021/04/24 04:31:28;;;;;;;12.70;6.40;;;;;;;4.42;63.89;97285.73;1744818;81;21102;-83
2021/04/24 04:33:55;;;;;;;13.15;5.90;;;;;;;4.42;63.99;97285.73;1733659;83;21516;-83
2021/04/24 04:36:22;;;;;;;13.62;6.53;;;;;;;4.40;64.25;97291.73;1744630;81;21139;-83
2021/04/24 04:38:49;;;;;;;9.05;4.83;;;;;;;4.41;64.00;97303.83;1735457;81;21151;-83
2021/04/24 04:41:15;;;;;;;11.20;5.28;;;;;;;4.45;63.98;97307.60;1728410;83;21537;-83
2021/04/24 04:43:42;;;;;;;11.03;6.12;;;;;;;4.49;64.03;97298.25;1733818;83;21486;-83
2021/04/24 04:46:09;;;;;;;16.17;6.92;;;;;;;4.53;63.94;97308.62;1723219;83;21227;-83
2021/04/24 04:48:36;;;;;;;10.60;4.83;;;;;;;4.57;63.74;97317.64;1668819;85;21218;-83
2021/04/24 04:51:04;;;;;;;11.83;5.30;;;;;;;4.59;63.83;97309.03;1663176;86;21527;-83
2021/04/24 04:53:31;;;;;;;10.53;5.78;;;;;;;4.60;63.57;97306.69;1670728;84;21147;-83
2021/04/24 04:55:58;;;;;;;18.32;6.95;;;;;;;4.60;63.58;97315.88;1674539;86;21531;-83
2021/04/24 04:58:25;;;;;;;9.48;5.75;;;;;;;4.60;63.62;97313.25;1682574;84;21159;-83
2021/04/24 05:00:53;;;;;;;12.10;5.65;;;;;;;4.62;63.83;97316.45;1671823;84;21124;-83
2021/04/24 05:03:20;;;;;;;10.05;4.47;;;;;;;4.64;63.88;97318.34;1661797;85;21148;-83
2021/04/24 05:05:48;;;;;;;10.25;4.90;;;;;;;4.64;63.77;97317.03;1689926;84;21135;-83
2021/04/24 05:08:15;;;;;;;11.95;5.28;;;;;;;4.63;63.83;97323.31;1729691;83;21577;-83
2021/04/24 05:10:42;;;;;;;8.93;4.55;;;;;;;4.65;63.97;97327.85;1740780;81;21142;-83
2021/04/24 05:13:09;;;;;;;16.48;6.72;;;;;;;4.65;64.29;97325.74;1729560;82;21170;-83
2021/04/24 05:15:36;;;;;;;15.10;5.03;;;;;;;4.66;64.40;97333.39;1732057;82;21154;-83
2021/04/24 05:18:04;;;;;;;13.22;6.30;;;;;;;4.70;64.10;97331.92;1726839;81;21281;-83
2021/04/24 05:20:31;;;;;;;11.97;6.70;;;;;;;4.68;64.23;97336.59;1733252;80;21146;-83
2021/04/24 05:22:58;;;;;;;14.78;6.67;;;;;;;5.84;65.25;97336.50;1732661;82;21119;-83
2021/04/24 05:25:25;;;;;;;13.88;6.72;;;;;;;8.83;63.96;97329.25;1738573;81;21153;-83
2021/04/24 05:27:52;;;;;;;13.83;6.80;;;;;;;11.04;57.12;97323.17;1734199;81;21187;-83
2021/04/24 05:30:20;;;;;;;12.00;6.40;;;;;;;12.25;52.99;97320.19;1751982;80;21151;-83
2021/04/24 05:32:48;;;;;;;11.50;6.40;;;;;;;12.70;49.62;97325.05;1729168;81;21625;-84
2021/04/24 05:35:17;;;;;;;14.47;6.75;;;;;;;13.00;46.01;97320.09;1733942;82;21258;-84
2021/04/24 05:37:45;;;;;;;12.60;6.85;;;;;;;13.23;45.61;97325.28;1725731;83;21160;-84
2021/04/24 05:40:14;;;;;;;10.63;5.92;;;;;;;13.94;44.17;97335.36;1731720;80;21138;-84
2021/04/24 05:42:42;;;;;;;13.25;6.53;;;;;;;13.85;43.01;97318.38;1733052;82;21497;-84
2021/04/24 05:45:12;;;;;;;14.03;6.72;;;;;;;14.30;42.53;97305.09;1732932;82;21151;-84
2021/04/24 05:47:44;;;;;;;9.98;4.80;;;;;;;14.35;40.80;97305.03;1739181;81;21598;-84
2021/04/24 05:50:13;;;;;;;11.20;6.00;;;;;;;13.78;40.15;97301.91;1736541;81;21150;-84
2021/04/24 05:52:41;;;;;;;12.65;6.55;;;;;;;13.72;42.40;97295.85;1728140;81;21123;-83
2021/04/24 05:55:10;;;;;;;11.33;6.40;;;;;;;15.03;40.75;97294.56;1735181;81;21224;-83
2021/04/24 05:57:38;;;;;;;11.57;6.37;;;;;;;15.79;41.61;97296.05;1721847;83;21114;-84
2021/04/24 06:00:10;;;;;;;11.63;6.40;;;;;;;16.66;39.68;97292.47;1739696;81;21564;-84
2021/04/24 06:02:38;;;;;;;12.13;6.67;;;;;;;17.58;40.29;97289.83;1732540;81;21212;-84
2021/04/24 06:05:09;;;;;;;10.50;6.33;;;;;;;17.32;37.12;97280.85;1722453;82;21167;-84
2021/04/24 06:07:39;;;;;;;11.88;6.83;;;;;;;16.72;36.06;97280.58;1739403;81;21105;-84
2021/04/24 06:10:10;;;;;;;11.33;6.40;;;;;;;16.55;38.82;97293.23;1732233;82;21110;-84
2021/04/24 06:12:38;;;;;;;11.25;6.75;;;;;;;18.17;40.86;97285.67;1733174;83;21072;-84
2021/04/24 06:15:10;;;;;;;10.03;6.00;;;;;;;18.69;34.85;97284.71;1671853;86;21189;-84
2021/04/24 06:17:41;;;;;;;13.25;7.00;;;;;;;17.55;33.44;97291.00;1703622;84;21145;-84
2021/04/24 06:20:12;;;;;;;10.65;6.22;;;;;;;17.96;36.95;97293.46;1742811;81;21304;-84
2021/04/24 06:22:41;;;;;;;8.28;5.97;;;;;;;17.93;34.13;97292.74;1738147;81;21100;-84
2021/04/24 06:25:11;;;;;;;9.58;5.72;;;;;;;17.32;34.82;97286.21;1692542;83;21169;-81
2021/04/24 06:27:38;;;;;;;12.33;7.00;;;;;;;17.51;34.59;97288.94;1686220;85;21205;-81
2021/04/24 06:30:10;;;;;;;10.00;5.50;;;;;;;18.03;36.20;97291.14;1685768;84;21155;-82
2021/04/24 06:32:38;;;;;;;8.55;5.20;;;;;;;19.85;33.30;97280.80;1698442;84;21165;-82
2021/04/24 06:35:10;;;;;;;9.98;5.28;;;;;;;19.39;31.56;97289.55;1698964;84;21155;-82
2021/04/24 06:37:37;;;;;;;11.03;5.75;;;;;;;18.21;32.12;97290.09;1686306;84;21184;-81
2021/04/24 06:40:09;;;;;;;8.73;4.65;;;;;;;15.63;34.71;97274.68;1687875;83;21187;-81
2021/04/24 06:42:36;;;;;;;9.65;4.75;;;;;;;14.85;35.97;97290.27;1689736;84;21184;-81
2021/04/24 06:45:07;;;;;;;8.85;4.62;;;;;;;13.73;37.05;97308.09;1701431;84;21551;-81
2021/04/24 06:47:35;;;;;;;9.43;5.45;;;;;;;13.11;37.87;97308.31;1701538;84;21143;-81
2021/04/24 06:50:07;;;;;;;10.25;5.42;;;;;;;13.71;37.76;97305.46;1701039;83;21168;-81
2021/04/24 06:52:35;;;;;;;8.13;5.35;;;;;;;12.48;39.22;97302.27;1679265;83;21187;-81
2021/04/24 06:55:05;;;;;;;12.28;5.75;;;;;;;12.15;41.64;97313.57;1697683;84;21124;-82
2021/04/24 06:57:33;;;;;;;10.25;5.83;;;;;;;12.57;41.77;97310.48;1695458;84;21241;-82
2021/04/24 07:00:01;;;;;;;10.60;6.17;;;;;;;12.53;40.77;97313.94;1692964;84;21201;-82
2021/04/24 07:02:29;;;;;;;15.48;6.33;;;;;;;12.32;41.25;97311.37;1695091;84;21156;-82
2021/04/24 07:04:56;;;;;;;11.80;6.15;;;;;;;12.96;41.68;97308.42;1677337;84;21573;-82
2021/04/24 07:07:23;;;;;;;10.15;5.65;;;;;;;12.71;41.74;97314.14;1694155;84;21198;-82
2021/04/24 07:09:50;;;;;;;8.68;4.65;;;;;;;13.11;40.12;97311.52;1709319;82;21147;-83
2021/04/24 07:12:18;;;;;;;10.85;5.92;;;;;;;13.19;38.59;97306.41;1703002;84;21526;-82
2021/04/24 07:14:45;;;;;;;30.25;8.23;;;;;;;13.86;39.14;97296.78;1704620;84;21166;-83
2021/04/24 07:17:12;;;;;;;10.18;5.83;;;;;;;16.38;41.19;97306.98;1693292;84;21183;-83
2021/04/24 07:19:39;;;;;;;11.55;5.92;;;;;;;19.07;37.48;97302.14;1696076;84;21134;-82
2021/04/24 07:22:07;;;;;;;10.43;6.08;;;;;;;18.52;35.72;97312.06;1699325;84;21163;-83
2021/04/24 07:24:34;;;;;;;10.32;5.45;;;;;;;19.44;34.73;97309.57;1704443;84;21131;-83
2021/04/24 07:27:01;;;;;;;10.53;5.47;;;;;;;20.49;32.72;97306.05;1704412;84;21127;-83
2021/04/24 07:29:28;;;;;;;12.35;5.90;;;;;;;22.27;34.48;97302.48;1699515;84;21187;-83
2021/04/24 07:31:56;;;;;;;10.28;5.70;;;;;;;23.63;31.88;97299.97;1685478;84;21189;-83
2021/04/24 07:34:24;;;;;;;12.00;5.83;;;;;;;23.68;29.79;97304.36;1704690;84;21542;-83
2021/04/24 07:36:51;;;;;;;10.05;5.30;;;;;;;24.15;30.36;97307.11;1694960;84;21169;-83
2021/04/24 07:39:18;;;;;;;9.50;5.60;;;;;;;24.72;27.45;97311.20;1709439;82;21571;-83
2021/04/24 07:41:46;;;;;;;9.70;5.40;;;;;;;24.68;28.66;97311.70;1696784;84;21155;-83
2021/04/24 07:44:13;;;;;;;10.18;5.00;;;;;;;26.11;28.34;97305.88;1705713;84;21137;-84
2021/04/24 07:46:40;;;;;;;9.38;4.92;;;;;;;25.52;23.81;97303.61;1709562;84;21133;-84
2021/04/24 07:49:08;;;;;;;9.95;4.92;;;;;;;25.33;25.54;97309.81;1700783;83;21546;-83
2021/04/24 07:51:35;;;;;;;7.00;4.87;;;;;;;25.62;23.54;97307.11;1695140;84;21528;-83
2021/04/24 07:54:02;;;;;;;9.40;3.98;;;;;;;24.88;24.02;97314.66;1689864;84;21143;-84
2021/04/24 07:56:29;;;;;;;6.90;4.28;;;;;;;24.77;22.67;97308.78;1709589;84;21188;-84
2021/04/24 07:58:57;;;;;;;8.45;5.22;;;;;;;22.78;22.37;97312.34;1709234;84;21156;-83
2021/04/24 08:01:24;;;;;;;5.75;4.30;;;;;;;22.72;25.21;97311.80;1698811;84;21509;-83
2021/04/24 08:03:51;;;;;;;6.20;3.92;;;;;;;24.88;26.27;97309.23;1696985;84;21127;-84
2021/04/24 08:06:18;;;;;;;7.92;4.37;;;;;;;25.13;20.54;97266.97;1681251;84;21152;-83
2021/04/24 08:08:47;;;;;;;5.97;4.03;;;;;;;23.46;22.02;97307.58;1679626;84;21407;-83
2021/04/24 08:11:15;;;;;;;5.20;3.67;;;;;;;24.00;24.97;97305.19;1673633;85;21145;-83
2021/04/24 08:13:42;;;;;;;7.00;3.80;;;;;;;24.11;21.06;97306.25;1688094;84;21140;-84
2021/04/24 08:16:09;;;;;;;4.58;3.17;;;;;;;22.17;21.50;97315.85;1689385;84;21145;-83
2021/04/24 08:18:36;;;;;;;5.42;3.27;;;;;;;21.04;22.72;97304.51;1681919;84;21542;-83
2021/04/24 08:21:05;;;;;;;4.50;2.80;;;;;;;21.27;24.55;97308.48;1681056;84;21137;-83
2021/04/24 08:23:32;;;;;;;4.35;3.10;;;;;;;22.36;22.40;97294.25;1673518;85;21646;-83
2021/04/24 08:25:59;;;;;;;5.28;3.00;;;;;;;18.64;23.91;97312.28;1678910;84;21658;-83
2021/04/24 08:28:28;;;;;;;5.85;2.87;;;;;;;16.78;26.09;97322.78;1685253;84;21159;-83
2021/04/24 08:30:55;;;;;;;5.55;2.90;;;;;;;17.11;27.51;97321.50;1660793;84;21149;-83
2021/04/24 08:33:23;;;;;;;4.60;3.15;;;;;;;18.94;26.68;97311.93;1661803;85;21498;-83
2021/04/24 08:35:50;;;;;;;5.12;3.40;;;;;;;20.08;24.93;97306.91;1672008;84;21180;-83
2021/04/24 08:38:18;;;;;;;4.87;2.72;;;;;;;21.40;25.59;97311.24;1671490;84;21161;-83
2021/04/24 08:40:45;;;;;;;5.42;2.80;;;;;;;22.39;21.54;97299.00;1680561;84;21175;-83
2021/04/24 08:43:14;;;;;;;4.00;2.45;;;;;;;21.66;22.63;97304.23;1735764;81;21154;-83
2021/04/24 08:45:43;;;;;;;4.90;2.83;;;;;;;19.58;22.73;97297.88;1655200;86;21197;-83
2021/04/24 08:48:11;;;;;;;4.78;2.90;;;;;;;19.23;24.37;97308.62;1682139;84;21136;-83
2021/04/24 08:50:39;;;;;;;5.85;2.70;;;;;;;20.36;25.70;97316.69;1671389;84;21217;-83
2021/04/24 08:53:07;;;;;;;5.42;3.10;;;;;;;20.25;23.02;97305.25;1654188;84;21210;-83
2021/04/24 08:55:38;;;;;;;4.87;2.90;;;;;;;17.98;25.01;97312.17;1686666;84;21144;-82
2021/04/24 08:58:07;;;;;;;4.47;2.87;;;;;;;18.23;26.69;97310.70;1674588;85;21610;-83
2021/04/24 09:00:39;;;;;;;5.05;3.00;;;;;;;18.87;24.62;97300.88;1668078;85;21244;-82
2021/04/24 09:03:13;;;;;;;6.03;3.08;;;;;;;18.43;25.96;97309.89;1663833;86;21204;-82
2021/04/24 09:05:40;;;;;;;6.00;3.10;;;;;;;17.68;26.12;97306.22;1666835;84;21185;-83
2021/04/24 09:08:11;;;;;;;5.12;3.08;;;;;;;16.95;27.44;97298.05;1738926;81;21143;-83
2021/04/24 09:10:44;;;;;;;6.28;2.85;;;;;;;18.29;27.79;97298.71;1730497;83;21501;-83
2021/04/24 09:13:19;;;;;;;6.95;2.58;;;;;;;18.00;25.25;97294.41;1723836;81;21150;-83
2021/04/24 09:15:47;;;;;;;4.42;2.80;;;;;;;16.12;26.68;97294.09;1727367;81;21174;-82
2021/04/24 09:18:16;;;;;;;6.83;2.60;;;;;;;14.52;28.86;97309.41;1748346;81;21319;-83
2021/04/24 09:20:59;;;;;;;6.53;2.83;;;;;;;13.38;29.41;97301.22;1737371;81;21125;-82
2021/04/24 09:23:33;;;;;;;6.92;2.70;;;;;;;13.12;31.55;97299.79;1722965;81;21440;-83
2021/04/24 09:26:10;;;;;;;5.47;2.70;;;;;;;13.90;31.77;97297.00;1726301;83;21533;-83
2021/04/24 09:28:45;;;;;;;6.00;2.77;;;;;;;14.02;31.93;97289.41;1683921;83;21156;-83
2021/04/24 09:31:20;;;;;;;6.30;2.42;;;;;;;13.49;29.96;97286.72;1660244;84;21201;-83
2021/04/24 09:33:52;;;;;;;4.53;2.42;;;;;;;13.05;31.92;97283.58;1681781;84;21532;-83
2021/04/24 09:36:20;;;;;;;5.70;2.37;;;;;;;12.85;32.63;97276.28;1666194;85;21193;-83
2021/04/24 09:38:52;;;;;;;7.40;3.08;;;;;;;12.36;33.90;97288.48;1673434;84;21204;-83
2021/04/24 09:41:25;;;;;;;4.42;2.65;;;;;;;12.72;33.95;97281.14;1679331;84;21123;-83
2021/04/24 09:44:09;;;;;;;5.25;2.95;;;;;;;12.56;33.68;97286.82;1669728;84;21266;-83
2021/04/24 09:46:50;;;;;;;6.17;2.95;;;;;;;12.57;33.71;97281.22;1677671;84;21128;-83
2021/04/24 09:49:34;;;;;;;5.30;2.75;;;;;;;12.12;32.87;97292.32;1673793;84;21512;-83
2021/04/24 09:52:05;;;;;;;3.98;2.65;;;;;;;12.02;33.96;97280.92;1667269;84;21503;-83
2021/04/24 09:54:42;;;;;;;5.67;2.90;;;;;;;12.19;34.23;97289.36;1692590;84;21195;-83
2021/04/24 09:57:20;;;;;;;9.90;3.40;;;;;;;12.11;33.96;97290.73;1672976;84;21170;-83
2021/04/24 10:00:02;;;;;;;4.33;2.70;;;;;;;12.55;33.70;97279.91;1667791;84;21186;-83
2021/04/24 10:02:41;;;;;;;6.60;3.20;;;;;;;12.24;32.84;97280.03;1674299;84;21163;-83
2021/04/24 10:05:21;;;;;;;5.00;2.65;;;;;;;12.01;34.10;97268.16;1654933;85;21312;-82
2021/04/24 10:07:55;;;;;;;3.95;2.80;;;;;;;12.09;32.74;97268.92;1670770;85;21277;-83
2021/04/24 10:10:36;;;;;;;7.10;3.62;;;;;;;12.01;33.34;97270.03;1666172;84;21254;-83
2021/04/24 10:13:07;;;;;;;5.33;3.50;;;;;;;11.64;33.97;97244.58;1661966;85;21273;-83
2021/04/24 10:15:41;;;;;;;7.12;3.22;;;;;;;11.70;34.55;97264.77;1671038;85;21299;-83
2021/04/24 10:18:12;;;;;;;6.83;3.45;;;;;;;11.68;34.84;97264.22;1657618;84;21178;-83
2021/04/24 10:20:43;;;;;;;4.60;2.52;;;;;;;11.82;34.79;97260.50;1656904;85;21194;-83
2021/04/24 10:23:15;;;;;;;6.55;3.25;;;;;;;12.16;33.91;97252.70;1669368;84;21270;-83
2021/04/24 10:25:43;;;;;;;4.80;2.37;;;;;;;12.22;33.69;97252.92;1669231;85;21152;-83
2021/04/24 10:28:11;;;;;;;4.20;2.75;;;;;;;11.92;33.78;97241.08;1669756;85;21537;-83
2021/04/24 10:30:39;;;;;;;5.40;2.87;;;;;;;11.55;34.27;97250.19;1661931;84;21179;-83
2021/04/24 10:33:07;;;;;;;7.37;3.37;;;;;;;11.33;34.23;97248.34;1653189;85;21191;-83
2021/04/24 10:35:35;;;;;;;4.87;3.10;;;;;;;11.69;35.66;97249.10;1666020;85;21494;-83
2021/04/24 10:38:04;;;;;;;6.45;3.00;;;;;;;12.00;35.14;97240.53;1666833;84;21131;-83
2021/04/24 10:40:31;;;;;;;6.70;3.27;;;;;;;12.00;34.67;97251.16;1664633;85;21222;-83
2021/04/24 10:43:00;;;;;;;4.83;2.85;;;;;;;11.69;34.66;97229.19;1701392;83;21176;-83
2021/04/24 10:45:32;;;;;;;4.73;2.80;;;;;;;11.59;34.64;97237.96;1689632;84;21201;-83
2021/04/24 10:48:00;;;;;;;6.92;3.15;;;;;;;11.54;33.29;97226.00;1660194;84;21222;-83
2021/04/24 10:50:47;;;;;;;4.33;2.20;;;;;;;11.30;34.57;97233.75;1672762;85;21204;-83
2021/04/24 10:53:25;;;;;;;6.42;2.87;;;;;;;10.99;34.27;97236.42;1673536;84;21198;-83
2021/04/24 10:55:55;;;;;;;7.00;3.17;;;;;;;10.79;34.92;97230.30;1679106;84;21554;-83
2021/04/24 10:58:27;;;;;;;6.28;2.83;;;;;;;10.60;34.28;97232.66;1661748;86;21510;-83
2021/04/24 11:01:01;;;;;;;5.67;3.08;;;;;;;10.42;34.71;97229.98;1663210;85;21554;-83
2021/04/24 11:03:45;;;;;;;6.22;2.83;;;;;;;10.52;35.73;97233.96;1697242;84;21171;-83
2021/04/24 11:06:24;;;;;;;8.43;3.58;;;;;;;10.79;35.52;97223.13;1675922;84;21171;-83
2021/04/24 11:09:16;;;;;;;6.15;3.20;;;;;;;10.87;35.57;97229.25;1727671;81;21524;-83
2021/04/24 11:11:50;;;;;;;7.55;3.60;;;;;;;11.15;35.80;97228.46;1721245;81;21168;-83
2021/04/24 11:14:20;;;;;;;7.30;3.58;;;;;;;11.52;36.52;97225.48;1721445;83;21495;-83
2021/04/24 11:16:48;;;;;;;5.90;2.80;;;;;;;11.79;35.56;97226.51;1736177;81;21185;-83
2021/04/24 11:19:43;;;;;;;6.25;3.42;;;;;;;11.60;34.15;97227.06;1740524;81;21171;-83
2021/04/24 11:22:35;;;;;;;6.08;2.83;;;;;;;11.53;34.57;97224.41;1720221;81;21158;-83
2021/04/24 11:25:27;;;;;;;5.65;3.10;;;;;;;11.87;35.24;97216.12;1714608;83;21095;-83
2021/04/24 11:28:13;;;;;;;5.40;2.50;;;;;;;11.97;34.63;97217.17;1661442;86;21150;-82
2021/04/24 11:31:04;;;;;;;7.58;2.80;;;;;;;11.91;34.33;97215.05;1650476;85;21172;-83
2021/04/24 11:33:48;;;;;;;6.40;2.50;;;;;;;11.78;34.58;97211.08;1700731;83;21147;-83
2021/04/24 11:36:20;;;;;;;4.47;2.60;;;;;;;11.76;33.11;97218.52;1678650;84;21189;-83
2021/04/24 11:39:04;;;;;;;6.12;2.87;;;;;;;11.53;34.69;97216.45;1684021;84;21153;-83
2021/04/24 11:41:46;;;;;;;5.95;3.10;;;;;;;11.80;33.77;97215.61;1694768;84;21166;-83
2021/04/24 11:44:30;;;;;;;5.47;2.85;;;;;;;11.83;33.58;97224.39;1679195;85;21528;-82
2021/04/24 11:46:58;;;;;;;6.03;3.30;;;;;;;11.51;33.52;97225.22;1662223;84;21576;-83